createdAt,value
2022-08-02T00:00:57.285Z,6.72
2022-08-02T00:03:24.806Z,7.60
2022-08-02T00:05:53.562Z,6.50
2022-08-02T00:08:22.053Z,5.63
2022-08-02T00:10:49.621Z,5.50
2022-08-02T00:13:16.641Z,5.32
2022-08-02T00:15:43.585Z,5.30
2022-08-02T00:18:10.507Z,5.35
2022-08-02T00:20:37.593Z,5.32
2022-08-02T00:23:04.590Z,5.30
2022-08-02T00:25:31.598Z,5.57
2022-08-02T00:27:58.540Z,5.20
2022-08-02T00:30:25.554Z,5.18
2022-08-02T00:32:52.519Z,5.47
2022-08-02T00:35:19.552Z,5.57
2022-08-02T00:37:46.550Z,6.78
2022-08-02T00:40:13.637Z,5.75
2022-08-02T00:42:40.820Z,6.25
2022-08-02T00:45:08.549Z,5.78
2022-08-02T00:47:35.825Z,5.05
2022-08-02T00:50:02.880Z,6.05
2022-08-02T00:52:29.857Z,5.45
2022-08-02T00:54:56.834Z,5.07
2022-08-02T00:57:23.812Z,5.88
2022-08-02T00:59:50.758Z,5.55
2022-08-02T01:02:17.915Z,5.25
2022-08-02T01:04:45.180Z,5.03
2022-08-02T01:07:13.891Z,5.60
2022-08-02T01:09:45.471Z,5.97
2022-08-02T01:12:13.667Z,7.32
2022-08-02T01:14:48.628Z,9.95
2022-08-02T01:17:52.121Z,9.57
2022-08-02T01:21:06.406Z,8.80
2022-08-02T01:23:57.853Z,9.95
2022-08-02T01:26:35.306Z,9.57
2022-08-02T01:29:19.017Z,9.35
2022-08-02T01:32:11.767Z,8.60
2022-08-02T01:35:15.386Z,6.68
2022-08-02T01:37:52.543Z,6.50
2022-08-02T01:40:28.932Z,6.47
2022-08-02T01:42:57.876Z,6.35
2022-08-02T01:45:33.739Z,5.75
2022-08-02T01:48:01.877Z,5.82
2022-08-02T01:50:34.102Z,6.15
2022-08-02T01:53:12.427Z,5.68
2022-08-02T01:55:57.917Z,6.03
2022-08-02T01:58:30.146Z,6.32
2022-08-02T02:00:58.758Z,5.43
2022-08-02T02:03:27.982Z,5.60
2022-08-02T02:05:57.983Z,5.82
2022-08-02T02:08:45.590Z,5.93
2022-08-02T02:12:06.075Z,6.40
2022-08-02T02:14:02.300Z,10.55
2022-08-02T02:16:32.100Z,11.00
2022-08-02T02:19:02.250Z,10.68
2022-08-02T02:21:29.548Z,10.27
2022-08-02T02:23:59.320Z,9.38
2022-08-02T02:26:31.694Z,10.15
2022-08-02T02:29:02.507Z,9.30
2022-08-02T02:31:44.417Z,7.97
2022-08-02T02:34:25.591Z,9.88
2022-08-02T02:36:53.623Z,10.73
2022-08-02T02:39:26.266Z,11.10
2022-08-02T02:41:55.417Z,9.85
2022-08-02T02:44:23.812Z,11.48
2022-08-02T02:46:54.829Z,7.57
2022-08-02T02:49:23.654Z,7.28
2022-08-02T02:51:51.686Z,7.25
2022-08-02T02:54:32.083Z,6.13
2022-08-02T02:57:04.202Z,6.22
2022-08-02T02:59:32.856Z,6.20
2022-08-02T03:02:00.532Z,6.10
2022-08-02T03:04:55.162Z,6.53
2022-08-02T03:07:16.436Z,6.32
2022-08-02T03:09:43.700Z,6.03
2022-08-02T03:12:11.639Z,6.28
2022-08-02T03:14:44.967Z,6.07
2022-08-02T03:17:16.751Z,6.13
2022-08-02T03:19:44.888Z,6.28
2022-08-02T03:22:12.118Z,6.20
2022-08-02T03:24:39.396Z,6.47
2022-08-02T03:27:06.358Z,6.20
2022-08-02T03:29:34.796Z,7.05
2022-08-02T03:32:02.118Z,7.50
2022-08-02T03:34:29.566Z,7.65
2022-08-02T03:36:58.188Z,7.63
2022-08-02T03:39:27.094Z,7.00
2022-08-02T03:41:55.280Z,6.55
2022-08-02T03:44:23.075Z,7.07
2022-08-02T03:46:50.881Z,6.10
2022-08-02T03:49:18.569Z,6.45
2022-08-02T03:51:46.709Z,6.90
2022-08-02T03:54:13.944Z,7.10
2022-08-02T03:56:41.237Z,6.88
2022-08-02T03:59:14.246Z,6.93
2022-08-02T04:01:42.359Z,7.82
2022-08-02T04:04:09.743Z,7.20
2022-08-02T04:06:39.966Z,7.15
2022-08-02T04:09:09.906Z,6.72
2022-08-02T04:11:37.985Z,9.00
2022-08-02T04:14:11.358Z,10.25
2022-08-02T04:16:52.598Z,12.02
2022-08-02T04:19:43.124Z,10.43
2022-08-02T04:22:17.364Z,11.05
2022-08-02T04:24:51.067Z,9.50
2022-08-02T04:27:50.347Z,8.23
2022-08-02T04:30:08.206Z,8.73
2022-08-02T04:32:36.124Z,8.27
2022-08-02T04:35:19.959Z,7.97
2022-08-02T04:38:09.002Z,7.85
2022-08-02T04:40:35.009Z,7.18
2022-08-02T04:43:01.995Z,7.32
2022-08-02T04:45:30.642Z,7.07
2022-08-02T04:48:05.942Z,7.20
2022-08-02T04:50:34.175Z,6.88
2022-08-02T04:53:01.745Z,6.97
2022-08-02T04:55:29.887Z,7.50
2022-08-02T04:57:58.904Z,6.97
2022-08-02T05:00:27.990Z,6.25
2022-08-02T05:02:57.365Z,6.70
2022-08-02T05:05:24.488Z,6.50
2022-08-02T05:07:51.710Z,5.78
2022-08-02T05:10:19.305Z,5.63
2022-08-02T05:12:46.310Z,5.90
2022-08-02T05:15:16.722Z,5.95
2022-08-02T05:17:46.769Z,6.07
2022-08-02T05:20:19.207Z,5.82
2022-08-02T05:22:47.234Z,5.70
2022-08-02T05:25:14.783Z,5.75
2022-08-02T05:27:42.093Z,5.75
2022-08-02T05:30:09.970Z,6.13
2022-08-02T05:32:44.914Z,6.60
2022-08-02T05:35:12.008Z,6.88
2022-08-02T05:37:39.269Z,7.22
2022-08-02T05:40:12.905Z,7.30
2022-08-02T05:42:41.092Z,6.60
2022-08-02T05:45:08.675Z,7.07
2022-08-02T05:47:36.062Z,6.15
2022-08-02T05:50:04.670Z,5.72
2022-08-02T05:53:04.954Z,6.38
2022-08-02T05:55:40.775Z,5.97
2022-08-02T05:58:18.455Z,6.90
2022-08-02T06:00:49.813Z,5.72
2022-08-02T06:03:37.208Z,5.68
2022-08-02T06:06:14.478Z,5.97
2022-08-02T06:08:48.763Z,5.38
2022-08-02T06:11:21.383Z,5.22
2022-08-02T06:13:48.774Z,5.43
2022-08-02T06:16:18.005Z,4.95
2022-08-02T06:19:00.688Z,5.30
2022-08-02T06:22:31.271Z,5.30
2022-08-02T06:24:19.931Z,4.25
2022-08-02T06:26:52.684Z,4.90
2022-08-02T06:29:23.094Z,4.63
2022-08-02T06:31:53.602Z,4.50
2022-08-02T06:34:20.962Z,3.67
2022-08-02T06:37:19.926Z,4.00
2022-08-02T06:39:50.359Z,4.20
2022-08-02T06:43:02.740Z,3.88
2022-08-02T06:45:29.789Z,4.03
2022-08-02T06:47:56.705Z,3.80
2022-08-02T06:50:23.761Z,5.93
2022-08-02T06:52:50.765Z,4.65
2022-08-02T06:55:17.810Z,4.18
2022-08-02T06:57:44.819Z,4.07
2022-08-02T07:00:12.595Z,4.43
2022-08-02T07:02:39.968Z,3.97
2022-08-02T07:05:08.164Z,4.10
2022-08-02T07:07:35.241Z,4.60
2022-08-02T07:10:02.241Z,4.32
2022-08-02T07:12:31.123Z,4.28
2022-08-02T07:15:01.391Z,4.20
2022-08-02T07:17:29.770Z,3.78
2022-08-02T07:19:57.630Z,3.75
2022-08-02T07:22:27.063Z,3.72
2022-08-02T07:24:56.799Z,4.05
2022-08-02T07:27:24.928Z,3.90
2022-08-02T07:29:52.303Z,4.07
2022-08-02T07:32:22.880Z,4.75
2022-08-02T07:34:51.110Z,3.97
2022-08-02T07:37:35.470Z,3.90
2022-08-02T07:40:13.717Z,4.30
2022-08-02T07:42:43.513Z,4.65
2022-08-02T07:45:12.628Z,4.03
2022-08-02T07:47:41.161Z,4.35
2022-08-02T07:50:09.844Z,3.83
2022-08-02T07:52:36.958Z,3.70
2022-08-02T07:55:05.735Z,3.47
2022-08-02T07:57:33.080Z,3.63
2022-08-02T08:00:00.033Z,3.47
2022-08-02T08:02:27.183Z,3.40
2022-08-02T08:04:54.196Z,3.47
2022-08-02T08:07:21.290Z,3.17
2022-08-02T08:09:51.216Z,3.40
2022-08-02T08:12:23.504Z,3.20
2022-08-02T08:14:50.476Z,3.10
2022-08-02T08:17:17.549Z,3.08
2022-08-02T08:19:50.929Z,2.97
2022-08-02T08:22:22.104Z,2.97
2022-08-02T08:24:49.356Z,3.38
2022-08-02T08:27:22.526Z,3.15
2022-08-02T08:29:50.348Z,2.60
2022-08-02T08:32:18.466Z,3.00
2022-08-02T08:34:47.198Z,3.00
2022-08-02T08:37:16.973Z,2.55
2022-08-02T08:39:56.856Z,2.70
2022-08-02T08:42:27.401Z,3.20
2022-08-02T08:44:58.708Z,2.92
2022-08-02T08:47:42.311Z,2.95
2022-08-02T08:50:25.673Z,3.30
2022-08-02T08:53:04.019Z,3.42
2022-08-02T08:55:33.297Z,2.80
2022-08-02T08:58:01.580Z,2.50
2022-08-02T09:00:31.972Z,3.03
2022-08-02T09:03:01.637Z,2.58
2022-08-02T09:05:28.580Z,2.67
2022-08-02T09:07:55.501Z,2.78
2022-08-02T09:10:38.959Z,2.90
2022-08-02T09:13:38.284Z,3.20
2022-08-02T09:16:11.266Z,2.88
2022-08-02T09:18:44.748Z,3.78
2022-08-02T09:21:15.025Z,3.40
2022-08-02T09:23:53.036Z,3.13
2022-08-02T09:26:23.281Z,2.63
2022-08-02T09:28:53.163Z,3.05
2022-08-02T09:31:22.855Z,2.83
2022-08-02T09:33:59.006Z,2.88
2022-08-02T09:36:28.804Z,2.88
2022-08-02T09:39:02.374Z,2.83
2022-08-02T09:41:32.663Z,3.10
2022-08-02T09:44:05.390Z,3.15
2022-08-02T09:46:39.365Z,3.10
2022-08-02T09:49:19.465Z,2.90
2022-08-02T09:51:46.808Z,3.13
2022-08-02T09:54:24.357Z,3.17
2022-08-02T09:56:58.494Z,3.15
2022-08-02T09:59:27.518Z,2.80
2022-08-02T10:02:01.318Z,3.30
2022-08-02T10:04:33.705Z,2.90
2022-08-02T10:07:04.547Z,2.75
2022-08-02T10:09:32.512Z,3.30
2022-08-02T10:12:01.657Z,3.15
2022-08-02T10:14:30.790Z,3.20
2022-08-02T10:16:58.762Z,3.90
2022-08-02T10:20:02.547Z,4.40
2022-08-02T10:22:16.000Z,3.30
2022-08-02T10:24:48.310Z,3.88
2022-08-02T10:27:22.115Z,3.33
2022-08-02T10:29:55.301Z,4.18
2022-08-02T10:32:40.474Z,3.40
2022-08-02T10:35:20.232Z,4.10
2022-08-02T10:38:08.035Z,3.40
2022-08-02T10:40:48.935Z,3.72
2022-08-02T10:43:43.177Z,3.70
2022-08-02T10:46:38.569Z,3.75
2022-08-02T10:52:00.788Z,3.30
2022-08-02T10:54:34.390Z,3.83
2022-08-02T10:57:02.101Z,3.50
2022-08-02T10:59:36.311Z,3.90
2022-08-02T11:02:06.633Z,3.47
2022-08-02T11:04:39.687Z,3.88
2022-08-02T11:07:18.242Z,3.70
2022-08-02T11:09:48.218Z,4.10
2022-08-02T11:12:18.974Z,6.38
2022-08-02T11:15:03.934Z,4.38
2022-08-02T11:17:56.025Z,3.90
2022-08-02T11:20:24.713Z,3.50
2022-08-02T11:22:54.251Z,3.42
2022-08-02T11:25:24.213Z,3.28
2022-08-02T11:28:10.288Z,2.95
2022-08-02T11:30:37.772Z,2.97
2022-08-02T11:33:05.265Z,3.33
2022-08-02T11:35:39.207Z,3.30
2022-08-02T11:38:23.982Z,3.40
2022-08-02T11:40:50.979Z,4.13
2022-08-02T11:43:27.484Z,4.50
2022-08-02T11:45:56.238Z,5.93
2022-08-02T11:48:35.336Z,3.70
2022-08-02T11:51:14.965Z,3.47
2022-08-02T11:53:46.144Z,3.50
2022-08-02T11:56:14.608Z,3.08
2022-08-02T11:59:06.599Z,3.22
2022-08-02T12:01:44.865Z,3.40
2022-08-02T12:04:19.335Z,3.60
2022-08-02T12:06:58.802Z,3.40
2022-08-02T12:09:28.187Z,3.22
2022-08-02T12:11:57.225Z,3.35
2022-08-02T12:14:26.842Z,3.28
2022-08-02T12:17:13.316Z,3.42
2022-08-02T12:19:42.443Z,3.42
2022-08-02T12:22:18.588Z,3.10
2022-08-02T12:24:49.340Z,3.08
2022-08-02T12:27:53.310Z,3.20
2022-08-02T12:30:27.441Z,3.28
2022-08-02T12:33:12.887Z,3.13
2022-08-02T12:35:40.303Z,3.50
2022-08-02T12:38:11.782Z,3.28
2022-08-02T12:40:38.887Z,2.67
2022-08-02T12:43:08.646Z,3.22
2022-08-02T12:45:57.391Z,3.08
2022-08-02T12:49:16.002Z,3.13
2022-08-02T12:51:51.214Z,3.00
2022-08-02T12:54:29.153Z,3.22
2022-08-02T12:57:11.191Z,3.17
2022-08-02T12:59:41.480Z,3.42
2022-08-02T13:02:12.251Z,2.90
2022-08-02T13:04:40.313Z,3.28
2022-08-02T13:07:08.993Z,3.08
2022-08-02T13:09:41.182Z,3.10
2022-08-02T13:12:08.929Z,2.95
2022-08-02T13:14:40.824Z,3.08
2022-08-02T13:17:10.458Z,3.78
2022-08-02T13:19:38.650Z,3.08
2022-08-02T13:22:06.109Z,3.33
2022-08-02T13:24:39.911Z,2.90
2022-08-02T13:27:21.387Z,3.25
2022-08-02T13:29:50.505Z,3.60
2022-08-02T13:32:17.927Z,3.10
2022-08-02T13:34:45.020Z,2.90
2022-08-02T13:37:12.179Z,3.20
2022-08-02T13:39:39.281Z,3.17
2022-08-02T13:42:07.147Z,3.80
2022-08-02T13:44:35.192Z,3.78
2022-08-02T13:47:03.097Z,3.15
2022-08-02T13:49:51.425Z,5.68
2022-08-02T13:52:17.804Z,5.03
2022-08-02T13:54:44.915Z,3.80
2022-08-02T13:57:11.921Z,3.60
2022-08-02T13:59:56.032Z,3.13
2022-08-02T14:02:25.428Z,3.00
2022-08-02T14:04:52.372Z,3.50
2022-08-02T14:07:19.496Z,3.47
2022-08-02T14:09:46.900Z,3.67
2022-08-02T14:12:14.386Z,2.95
2022-08-02T14:14:41.702Z,3.20
2022-08-02T14:17:08.658Z,3.22
2022-08-02T14:19:35.664Z,3.38
2022-08-02T14:22:11.142Z,3.25
2022-08-02T14:24:40.190Z,3.25
2022-08-02T14:27:07.174Z,3.15
2022-08-02T14:29:34.642Z,3.40
2022-08-02T14:32:01.921Z,3.45
2022-08-02T14:34:29.560Z,3.25
2022-08-02T14:36:57.001Z,3.00
2022-08-02T14:39:24.049Z,3.80
2022-08-02T14:42:00.179Z,3.28
2022-08-02T14:44:31.146Z,3.03
2022-08-02T14:46:58.215Z,3.63
2022-08-02T14:49:26.782Z,3.30
2022-08-02T14:51:58.124Z,3.42
2022-08-02T14:54:30.375Z,6.90
2022-08-02T14:57:03.418Z,5.47
2022-08-02T14:59:30.710Z,3.60
2022-08-02T15:01:58.998Z,3.13
2022-08-02T15:04:26.794Z,3.55
2022-08-02T15:06:54.691Z,4.18
2022-08-02T15:09:22.509Z,3.20
2022-08-02T15:11:49.905Z,3.35
2022-08-02T15:14:21.683Z,3.17
2022-08-02T15:16:57.206Z,3.90
2022-08-02T15:19:28.714Z,5.93
2022-08-02T15:22:13.084Z,6.65
2022-08-02T15:24:44.826Z,4.40
2022-08-02T15:27:14.787Z,3.80
2022-08-02T15:29:43.712Z,3.58
2022-08-02T15:32:11.679Z,3.08
2022-08-02T15:34:39.451Z,3.30
2022-08-02T15:37:06.382Z,3.42
2022-08-02T15:39:33.355Z,3.40
2022-08-02T15:42:00.344Z,6.05
2022-08-02T15:44:27.433Z,12.68
2022-08-02T15:46:54.675Z,7.75
2022-08-02T15:49:24.134Z,4.57
2022-08-02T15:51:52.483Z,3.90
2022-08-02T15:54:19.873Z,3.70
2022-08-02T15:56:48.456Z,3.70
2022-08-02T15:59:15.749Z,3.60
2022-08-02T16:01:47.205Z,3.88
2022-08-02T16:04:16.226Z,3.22
2022-08-02T16:06:44.044Z,3.50
2022-08-02T16:09:11.454Z,3.63
2022-08-02T16:11:38.744Z,3.63
2022-08-02T16:14:05.861Z,3.65
2022-08-02T16:16:34.998Z,3.53
2022-08-02T16:19:47.810Z,3.42
2022-08-02T16:21:52.148Z,3.70
2022-08-02T16:24:19.776Z,3.10
2022-08-02T16:26:46.809Z,3.33
2022-08-02T16:29:14.151Z,3.25
2022-08-02T16:31:47.635Z,3.72
2022-08-02T16:34:15.695Z,3.60
2022-08-02T16:36:42.974Z,3.40
2022-08-02T16:39:09.967Z,3.47
2022-08-02T16:41:50.438Z,3.40
2022-08-02T16:44:27.671Z,3.88
2022-08-02T16:47:00.891Z,3.88
2022-08-02T16:50:07.259Z,3.72
2022-08-02T16:52:16.828Z,4.18
2022-08-02T16:54:49.485Z,4.45
2022-08-02T16:57:20.129Z,3.90
2022-08-02T16:59:58.048Z,4.25
2022-08-02T17:02:27.792Z,4.20
2022-08-02T17:04:55.160Z,4.22
2022-08-02T17:08:08.498Z,4.75
2022-08-02T17:10:10.356Z,4.85
2022-08-02T17:12:38.700Z,5.75
2022-08-02T17:16:08.036Z,5.57
2022-08-02T17:17:57.617Z,5.90
2022-08-02T17:20:24.771Z,5.45
2022-08-02T17:22:52.535Z,5.05
2022-08-02T17:25:20.779Z,6.72
2022-08-02T17:27:55.977Z,6.03
2022-08-02T17:30:26.467Z,5.68
2022-08-02T17:32:54.627Z,5.50
2022-08-02T17:35:24.966Z,5.00
2022-08-02T17:37:54.551Z,4.30
2022-08-02T17:40:26.946Z,5.90
2022-08-02T17:42:53.893Z,8.23
2022-08-02T17:48:07.784Z,7.30
2022-08-02T17:50:36.130Z,6.10
2022-08-02T17:53:04.734Z,6.95
2022-08-02T17:55:33.248Z,10.43
2022-08-02T17:58:00.249Z,11.07
2022-08-02T18:00:36.211Z,10.32
2022-08-02T18:03:07.917Z,7.13
2022-08-02T18:05:40.055Z,6.57
2022-08-02T18:11:08.493Z,13.38
2022-08-02T18:13:36.389Z,13.50
2022-08-02T18:16:06.003Z,13.15
2022-08-02T18:18:48.522Z,10.57
2022-08-02T18:21:22.638Z,10.15
2022-08-02T18:23:58.092Z,11.98
2022-08-02T18:26:27.944Z,12.50
2022-08-02T18:28:57.496Z,13.02
2022-08-02T18:31:25.417Z,11.40
2022-08-02T18:33:55.016Z,10.88
2022-08-02T18:36:28.079Z,8.70
2022-08-02T18:38:55.030Z,6.55
2022-08-02T18:41:22.264Z,5.97
2022-08-02T18:43:51.704Z,5.28
2022-08-02T18:46:20.070Z,5.45
2022-08-02T18:48:48.119Z,6.20
2022-08-02T18:51:19.075Z,5.82
2022-08-02T18:53:51.249Z,5.93
2022-08-02T18:56:20.339Z,6.90
2022-08-02T18:58:55.981Z,5.82
2022-08-02T19:01:32.469Z,5.25
2022-08-02T19:04:02.643Z,5.40
2022-08-02T19:06:29.890Z,5.75
2022-08-02T19:09:04.994Z,5.18
2022-08-02T19:11:38.691Z,5.53
2022-08-02T19:14:08.413Z,4.93
2022-08-02T19:16:37.071Z,5.50
2022-08-02T19:19:06.455Z,5.15
2022-08-02T19:22:18.342Z,5.22
2022-08-02T19:24:20.837Z,5.15
2022-08-02T19:26:51.975Z,5.25
2022-08-02T19:29:42.083Z,5.30
2022-08-02T19:32:40.742Z,5.35
2022-08-02T19:34:56.057Z,5.47
2022-08-02T19:37:23.199Z,5.32
2022-08-02T19:39:50.998Z,5.78
2022-08-02T19:42:18.795Z,5.78
2022-08-02T19:44:46.572Z,6.32
2022-08-02T19:47:19.457Z,6.68
2022-08-02T19:49:48.815Z,7.65
2022-08-02T19:52:21.772Z,7.45
2022-08-02T19:54:54.371Z,8.10
2022-08-02T19:57:23.227Z,7.10
2022-08-02T19:59:52.637Z,7.30
2022-08-02T20:02:21.229Z,7.55
2022-08-02T20:04:50.191Z,7.30
2022-08-02T20:07:54.616Z,6.72
2022-08-02T20:10:11.180Z,6.90
2022-08-02T20:12:42.459Z,6.80
2022-08-02T20:15:14.868Z,6.70
2022-08-02T20:17:47.698Z,6.30
2022-08-02T20:20:16.238Z,7.07
2022-08-02T20:23:01.656Z,7.07
2022-08-02T20:25:50.640Z,7.70
2022-08-02T20:28:22.359Z,7.68
2022-08-02T20:30:49.925Z,7.55
2022-08-02T20:33:21.496Z,9.20
2022-08-02T20:35:53.138Z,11.32
2022-08-02T20:38:27.925Z,12.82
2022-08-02T20:40:56.985Z,16.38
2022-08-02T20:43:31.289Z,17.05
2022-08-02T20:46:00.418Z,18.00
2022-08-02T20:48:29.895Z,17.95
2022-08-02T20:50:57.301Z,18.35
2022-08-02T20:53:25.709Z,17.30
2022-08-02T20:55:57.053Z,22.85
2022-08-02T20:58:26.802Z,22.70
2022-08-02T21:00:59.026Z,17.95
2022-08-02T21:03:38.986Z,15.60
2022-08-02T21:06:11.486Z,14.02
2022-08-02T21:08:42.124Z,11.68
2022-08-02T21:11:14.033Z,11.90
2022-08-02T21:13:46.372Z,11.43
2022-08-02T21:16:18.468Z,10.18
2022-08-02T21:18:48.966Z,10.82
2022-08-02T21:21:16.788Z,11.70
2022-08-02T21:23:48.448Z,12.23
2022-08-02T21:26:19.616Z,12.85
2022-08-02T21:28:53.031Z,13.80
2022-08-02T21:31:20.375Z,13.07
2022-08-02T21:33:58.733Z,12.23
2022-08-02T21:36:30.687Z,11.63
2022-08-02T21:39:08.807Z,11.45
2022-08-02T21:41:46.576Z,9.95
2022-08-02T21:44:22.796Z,9.90
2022-08-02T21:46:53.370Z,9.20
2022-08-02T21:49:40.544Z,9.85
2022-08-02T21:52:10.127Z,8.95
2022-08-02T21:54:40.044Z,9.85
2022-08-02T21:57:07.741Z,9.88
2022-08-02T21:59:46.875Z,9.75
2022-08-02T22:02:16.546Z,9.15
2022-08-02T22:04:48.077Z,9.82
2022-08-02T22:07:17.689Z,9.25
2022-08-02T22:09:52.669Z,9.35
2022-08-02T22:12:20.082Z,9.73
2022-08-02T22:14:54.908Z,9.93
2022-08-02T22:17:46.829Z,9.88
2022-08-02T22:20:15.435Z,10.00
2022-08-02T22:22:45.525Z,10.38
2022-08-02T22:25:27.298Z,10.13
2022-08-02T22:28:35.237Z,10.23
2022-08-02T22:30:52.693Z,10.50
2022-08-02T22:33:46.640Z,18.65
2022-08-02T22:36:28.268Z,21.63
2022-08-02T22:38:55.841Z,18.38
2022-08-02T22:41:22.942Z,18.85
2022-08-02T22:43:50.184Z,17.55
2022-08-02T22:46:17.470Z,15.98
2022-08-02T22:48:45.650Z,15.55
2022-08-02T22:51:13.759Z,13.90
2022-08-02T22:53:42.538Z,14.43
2022-08-02T22:56:10.027Z,15.40
2022-08-02T22:58:40.203Z,8.13
2022-08-02T22:58:43.327Z,8.43
2022-08-02T22:59:06.570Z,14.90
2022-08-02T23:01:24.487Z,14.93
2022-08-02T23:03:51.442Z,15.80
2022-08-02T23:06:19.326Z,16.20
2022-08-02T23:08:50.033Z,15.63
2022-08-02T23:11:17.108Z,15.25
2022-08-02T23:13:44.147Z,16.23
2022-08-02T23:16:29.493Z,14.48
2022-08-02T23:19:14.811Z,14.65
2022-08-02T23:22:00.859Z,14.98
2022-08-02T23:24:28.712Z,13.63
2022-08-02T23:26:55.642Z,13.18
2022-08-02T23:29:22.709Z,13.02
2022-08-02T23:31:49.675Z,13.63
2022-08-02T23:34:17.587Z,12.13
2022-08-02T23:36:44.587Z,11.93
2022-08-02T23:39:11.631Z,12.50
2022-08-02T23:41:39.964Z,12.65
2022-08-02T23:44:15.162Z,11.57
2022-08-02T23:46:44.547Z,12.60
2022-08-02T23:49:12.498Z,12.35
2022-08-02T23:51:39.612Z,12.35
2022-08-02T23:54:06.534Z,11.85
2022-08-02T23:56:33.580Z,11.90
2022-08-02T23:59:00.502Z,12.35
